Terminal Aerodrome Forecast
Issued by NWS Wakefield, VA

Home | Current Version | Previous Version | Text Only | Print | Product List | Glossary On
Versions: 1 2 3 4 5 6 7 8 9 10 11 12 13 14 15 16 17 18 19 20
130
FTUS41 KAKQ 281743 RRA
TAFRIC
TAF
KRIC 281743Z 2818/2918 VRB03KT P6SM SCT040 SCT150
     FM282100 16005KT P6SM VCSH BKN040
     FM290200 VRB03KT P6SM VCTS OVC040CB
     FM290600 21005KT P6SM SCT080 BKN250
     FM291000 20006KT 6SM BR SCT080 BKN250=

USA.gov is the U.S. government's official web portal to all federal, state and local government web resources and services.